Time;durP1;ratioP1;P1;durP2;ratioP2;P2;SDS_P1;SDS_P2;PMS_P1;PMS_P2;Temp;Humidity;BMP_temperature;BMP_pressure;BME280_temperature;BME280_humidity;BME280_pressure;Samples;Min_cycle;Max_cycle;Signal;HPM_P1;HPM_P2
2021/11/22 00:01:55;;;;;;;10.52;4.38;;;;;;;5.15;100.00;100695.31;5050996;28;20048;-76
2021/11/22 00:04:22;;;;;;;13.13;4.85;;;;;;;5.14;100.00;100694.47;5043751;28;20087;-78
2021/11/22 00:06:50;;;;;;;10.63;4.45;;;;;;;5.16;100.00;100695.25;5063704;28;20052;-78
2021/11/22 00:09:19;;;;;;;11.23;4.60;;;;;;;5.19;100.00;100699.53;5064201;28;20061;-77
2021/11/22 00:11:49;;;;;;;9.65;4.47;;;;;;;5.23;100.00;100711.56;5051208;28;20135;-78
2021/11/22 00:14:17;;;;;;;11.63;4.22;;;;;;;5.23;100.00;100707.19;5042344;28;20044;-78
2021/11/22 00:16:48;;;;;;;10.07;4.03;;;;;;;5.19;100.00;100718.66;5040028;28;20586;-77
2021/11/22 00:19:16;;;;;;;12.90;4.85;;;;;;;5.18;100.00;100710.84;5046848;28;20045;-78
2021/11/22 00:21:46;;;;;;;13.65;5.28;;;;;;;5.19;100.00;100718.66;5044181;28;20040;-78
2021/11/22 00:24:13;;;;;;;10.07;4.05;;;;;;;5.20;100.00;100719.50;5066409;28;20143;-77
2021/11/22 00:26:41;;;;;;;6.18;4.10;;;;;;;5.20;100.00;100720.34;5065465;28;20051;-77
2021/11/22 00:29:08;;;;;;;12.80;4.95;;;;;;;5.18;100.00;100716.94;5065270;28;20131;-77
2021/11/22 00:31:35;;;;;;;12.40;4.55;;;;;;;5.15;100.00;100726.63;5050346;28;20178;-78
2021/11/22 00:34:03;;;;;;;9.32;3.92;;;;;;;5.16;100.00;100723.13;5068808;28;20124;-79
2021/11/22 00:36:31;;;;;;;11.77;4.18;;;;;;;5.19;100.00;100728.25;5067480;28;20085;-77
2021/11/22 00:38:58;;;;;;;16.02;4.43;;;;;;;5.18;100.00;100731.72;5032299;28;20041;-77
2021/11/22 00:41:25;;;;;;;13.65;4.22;;;;;;;5.20;100.00;100729.94;5066064;28;20658;-78
2021/11/22 00:43:54;;;;;;;7.53;3.90;;;;;;;5.23;100.00;100740.28;5066948;28;20131;-77
2021/11/22 00:46:25;;;;;;;10.13;4.10;;;;;;;5.22;100.00;100743.75;5067341;28;20049;-76
2021/11/22 00:48:53;;;;;;;9.98;3.40;;;;;;;5.28;100.00;100748.78;5061409;28;20383;-77
2021/11/22 00:51:20;;;;;;;11.32;4.00;;;;;;;5.26;100.00;100753.19;5063055;28;20117;-78
2021/11/22 00:53:49;;;;;;;10.95;4.00;;;;;;;5.18;100.00;100757.81;5046353;28;20091;-78
2021/11/22 00:56:17;;;;;;;9.10;4.00;;;;;;;5.12;100.00;100761.50;5073056;28;20137;-77
2021/11/22 00:58:45;;;;;;;6.18;3.47;;;;;;;5.06;100.00;100770.41;5064058;28;20143;-78
2021/11/22 01:01:12;;;;;;;6.75;3.85;;;;;;;5.02;100.00;100768.78;5047732;28;20312;-77
2021/11/22 01:03:40;;;;;;;13.85;5.45;;;;;;;4.94;100.00;100773.41;5070034;28;20123;-73
2021/11/22 01:06:07;;;;;;;9.13;3.42;;;;;;;4.85;100.00;100776.31;5070466;28;20123;-78
2021/11/22 01:08:34;;;;;;;9.02;4.05;;;;;;;4.77;100.00;100783.53;5049756;28;20380;-77
2021/11/22 01:11:02;;;;;;;9.88;3.38;;;;;;;4.67;100.00;100783.00;5051545;28;20460;-77
2021/11/22 01:13:29;;;;;;;9.10;3.38;;;;;;;4.58;100.00;100789.34;5055212;28;20137;-77
2021/11/22 01:15:56;;;;;;;12.30;4.18;;;;;;;4.50;100.00;100788.75;5062789;28;20063;-78
2021/11/22 01:18:24;;;;;;;8.80;3.45;;;;;;;4.47;100.00;100798.44;5071054;28;20051;-78
2021/11/22 01:20:51;;;;;;;10.27;3.63;;;;;;;4.45;100.00;100803.66;5047929;28;20567;-77
2021/11/22 01:23:18;;;;;;;10.73;3.60;;;;;;;4.37;100.00;100808.28;5066891;28;20063;-78
2021/11/22 01:25:45;;;;;;;8.60;3.72;;;;;;;4.37;100.00;100810.00;5051564;28;20127;-78
2021/11/22 01:28:13;;;;;;;9.60;4.13;;;;;;;4.33;100.00;100817.09;5072994;28;20272;-78
2021/11/22 01:30:44;;;;;;;9.35;4.22;;;;;;;4.37;100.00;100817.81;5067838;28;20056;-77
2021/11/22 01:33:13;;;;;;;13.98;4.10;;;;;;;4.46;100.00;100826.25;5050810;28;20067;-78
2021/11/22 01:35:42;;;;;;;13.30;4.20;;;;;;;4.48;100.00;100831.41;5050978;28;20048;-77
2021/11/22 01:38:13;;;;;;;8.48;3.60;;;;;;;4.55;100.00;100835.53;5064582;28;20136;-78
2021/11/22 01:40:44;;;;;;;9.95;3.83;;;;;;;4.57;100.00;100834.59;5034451;28;20112;-77
2021/11/22 01:43:14;;;;;;;9.35;3.72;;;;;;;4.52;100.00;100840.84;5067787;28;20240;-78
2021/11/22 01:45:44;;;;;;;7.43;2.95;;;;;;;4.51;100.00;100845.22;5047266;28;20051;-78
2021/11/22 01:48:12;;;;;;;11.63;3.22;;;;;;;4.48;100.00;100845.28;5063628;28;20087;-78
2021/11/22 01:50:39;;;;;;;6.90;2.72;;;;;;;4.47;100.00;100856.63;5048459;28;20080;-78
2021/11/22 01:53:07;;;;;;;5.68;2.35;;;;;;;4.40;100.00;100851.63;5071714;28;20143;-79
2021/11/22 01:55:34;;;;;;;5.22;2.60;;;;;;;4.36;100.00;100845.66;5015776;28;20119;-77
2021/11/22 01:58:02;;;;;;;6.93;2.53;;;;;;;4.31;100.00;100850.16;5044641;28;20052;-77
2021/11/22 02:00:39;;;;;;;7.43;2.08;;;;;;;4.29;100.00;100859.78;5048205;28;20124;-77
2021/11/22 02:03:07;;;;;;;8.50;2.30;;;;;;;4.28;100.00;100858.94;5048188;28;20053;-77
2021/11/22 02:05:35;;;;;;;4.35;2.17;;;;;;;4.27;100.00;100861.56;5048548;28;20587;-77
2021/11/22 02:08:04;;;;;;;7.80;2.47;;;;;;;4.28;100.00;100871.97;5069774;28;20127;-78
2021/11/22 02:10:31;;;;;;;4.85;2.30;;;;;;;4.32;100.00;100872.69;5045242;28;20045;-77
2021/11/22 02:13:02;;;;;;;4.05;2.00;;;;;;;4.32;100.00;100877.91;5065685;28;20139;-78
2021/11/22 02:15:30;;;;;;;8.50;2.70;;;;;;;4.37;100.00;100875.16;5065633;28;20521;-78
2021/11/22 02:17:58;;;;;;;3.20;2.17;;;;;;;4.39;100.00;100883.81;5067595;28;20514;-77
2021/11/22 02:20:28;;;;;;;3.00;1.90;;;;;;;4.37;100.00;100883.88;5062321;28;20151;-78
2021/11/22 02:23:02;;;;;;;5.88;2.10;;;;;;;4.37;100.00;100881.25;5067921;28;20131;-78
2021/11/22 02:25:31;;;;;;;3.78;1.83;;;;;;;4.39;100.00;100887.28;5046375;28;20060;-78
2021/11/22 02:27:59;;;;;;;14.60;3.00;;;;;;;4.42;100.00;100891.56;5036250;28;20041;-77
2021/11/22 02:30:29;;;;;;;4.00;1.73;;;;;;;4.45;100.00;100900.13;5054619;28;20054;-78
2021/11/22 02:32:59;;;;;;;6.07;2.10;;;;;;;4.44;100.00;100889.75;5068457;28;20049;-78
2021/11/22 02:35:28;;;;;;;5.90;2.30;;;;;;;4.48;100.00;100893.97;5061569;28;20071;-78
2021/11/22 02:38:11;;;;;;;4.70;2.25;;;;;;;4.47;100.00;100903.56;5048566;28;20170;-79
2021/11/22 02:40:38;;;;;;;5.50;2.08;;;;;;;4.51;100.00;100901.72;5045453;28;20135;-78
2021/11/22 02:43:05;;;;;;;7.05;1.98;;;;;;;4.58;100.00;100900.63;5068929;28;20078;-78
2021/11/22 02:45:33;;;;;;;3.53;1.60;;;;;;;4.58;100.00;100898.84;5053548;28;20055;-78
2021/11/22 02:48:00;;;;;;;3.70;2.00;;;;;;;4.61;100.00;100899.69;5066000;28;20053;-77
2021/11/22 02:50:27;;;;;;;4.00;1.60;;;;;;;4.64;100.00;100904.78;5054632;28;20048;-77
2021/11/22 02:52:56;;;;;;;4.72;1.60;;;;;;;4.63;100.00;100913.50;5068258;28;20045;-78
2021/11/22 02:55:24;;;;;;;3.08;1.42;;;;;;;4.61;100.00;100921.41;5052392;28;20305;-78
2021/11/22 02:57:52;;;;;;;7.13;1.42;;;;;;;4.62;100.00;100910.06;5043637;28;20041;-77
2021/11/22 03:00:28;;;;;;;7.60;1.92;;;;;;;4.63;100.00;100916.13;5066798;28;20056;-77
2021/11/22 03:02:55;;;;;;;;;;;;;;;4.68;100.00;100909.00;5068769;28;20122;-78
2021/11/22 03:05:23;;;;;;;2.72;1.55;;;;;;;4.73;100.00;100912.38;5033456;28;20017;-77
2021/11/22 03:07:52;;;;;;;5.45;1.13;;;;;;;4.75;100.00;100914.00;5049798;28;20065;-78
2021/11/22 03:10:21;;;;;;;4.40;1.15;;;;;;;4.76;100.00;100917.47;5054494;28;20054;-78
2021/11/22 03:12:49;;;;;;;9.82;1.50;;;;;;;4.75;100.00;100923.59;5060448;28;20052;-76
2021/11/22 03:15:19;;;;;;;4.43;1.75;;;;;;;4.77;100.00;100937.44;5063356;28;20608;-76
2021/11/22 03:17:46;;;;;;;4.22;1.70;;;;;;;4.84;100.00;100938.97;5034880;28;20072;-77
2021/11/22 03:20:16;;;;;;;4.03;1.17;;;;;;;4.78;100.00;100950.44;5048713;28;20162;-76
2021/11/22 03:22:45;;;;;;;5.40;1.33;;;;;;;4.77;100.00;100953.94;5057348;28;20443;-76
2021/11/22 03:25:13;;;;;;;3.83;1.27;;;;;;;4.79;100.00;100964.34;5045987;28;20144;-77
2021/11/22 03:27:42;;;;;;;3.47;1.10;;;;;;;4.83;100.00;100958.13;5068304;28;20049;-78
2021/11/22 03:30:11;;;;;;;6.07;1.25;;;;;;;4.79;100.00;100962.56;5062544;28;20131;-78
2021/11/22 03:32:39;;;;;;;2.08;1.08;;;;;;;4.77;100.00;100967.00;5067720;28;20185;-78
2021/11/22 03:35:07;;;;;;;2.67;0.88;;;;;;;4.75;100.00;100965.31;5062284;28;20067;-77
2021/11/22 03:37:34;;;;;;;2.28;1.00;;;;;;;4.71;100.00;100966.31;5068825;28;20062;-77
2021/11/22 03:40:02;;;;;;;5.30;1.60;;;;;;;4.69;100.00;100982.00;5066213;28;20080;-77
2021/11/22 03:42:37;;;;;;;4.13;1.33;;;;;;;4.71;100.00;100976.72;5070023;28;20053;-77
2021/11/22 03:45:06;;;;;;;3.08;1.13;;;;;;;4.70;100.00;100985.47;5065883;28;20067;-77
2021/11/22 03:47:33;;;;;;;3.00;1.40;;;;;;;4.71;100.00;100995.84;5064664;28;20056;-77
2021/11/22 03:50:01;;;;;;;2.50;1.55;;;;;;;4.66;100.00;100994.28;5046316;28;20098;-78
2021/11/22 03:52:28;;;;;;;3.42;1.17;;;;;;;4.62;100.00;101000.47;5067970;28;20049;-77
2021/11/22 03:54:56;;;;;;;3.63;1.10;;;;;;;4.64;100.00;101006.47;5064679;28;20135;-77
2021/11/22 03:57:26;;;;;;;4.35;1.25;;;;;;;4.68;100.00;101008.09;5064894;28;20570;-78
2021/11/22 03:59:56;;;;;;;3.92;1.50;;;;;;;4.67;100.00;101004.66;5060993;28;20564;-78
2021/11/22 04:02:24;;;;;;;4.38;1.20;;;;;;;4.74;100.00;101014.03;5068369;28;20418;-78
2021/11/22 04:04:51;;;;;;;3.33;1.20;;;;;;;4.76;100.00;101020.03;5046144;28;20087;-78
2021/11/22 04:07:18;;;;;;;3.75;1.42;;;;;;;4.78;100.00;101025.22;5067158;28;20218;-78
2021/11/22 04:09:46;;;;;;;8.77;1.20;;;;;;;4.78;100.00;101028.69;5059751;28;20144;-78
2021/11/22 04:12:13;;;;;;;4.78;1.10;;;;;;;4.78;100.00;101030.44;5063364;28;20057;-78
2021/11/22 04:14:40;;;;;;;3.30;0.93;;;;;;;4.80;100.00;101039.91;5065857;28;20106;-77
2021/11/22 04:17:07;;;;;;;3.13;1.10;;;;;;;4.78;100.00;101044.34;5062268;28;20418;-78
2021/11/22 04:19:35;;;;;;;2.25;1.02;;;;;;;4.83;100.00;101050.28;5065442;28;20484;-78
2021/11/22 04:22:03;;;;;;;3.92;0.88;;;;;;;4.89;100.00;101049.25;5066266;28;20461;-78
2021/11/22 04:24:30;;;;;;;1.23;0.65;;;;;;;4.91;100.00;101064.84;5045291;28;20280;-78
2021/11/22 04:26:57;;;;;;;7.30;0.82;;;;;;;4.87;100.00;101060.63;5048078;28;20045;-78
2021/11/22 04:29:25;;;;;;;2.53;0.80;;;;;;;4.87;100.00;101071.91;5063870;28;20056;-79
2021/11/22 04:31:57;;;;;;;3.45;1.00;;;;;;;4.88;100.00;101068.41;5032087;28;20447;-78
2021/11/22 04:34:24;;;;;;;3.38;1.10;;;;;;;4.89;100.00;101070.09;5064435;28;20052;-78
2021/11/22 04:36:51;;;;;;;6.35;1.00;;;;;;;4.89;100.00;101074.47;5046897;28;20052;-78
2021/11/22 04:39:18;;;;;;;4.07;0.80;;;;;;;4.90;100.00;101076.19;5047295;28;20291;-77
2021/11/22 04:41:47;;;;;;;2.60;1.05;;;;;;;4.92;100.00;101077.00;5060673;28;20040;-77
2021/11/22 04:44:15;;;;;;;4.13;1.08;;;;;;;4.93;100.00;101089.16;5045665;28;20148;-77
2021/11/22 04:46:42;;;;;;;4.30;1.25;;;;;;;4.97;100.00;101096.84;5048767;28;20054;-77
2021/11/22 04:49:09;;;;;;;3.75;0.93;;;;;;;4.99;100.00;101102.84;5062653;28;20055;-79
2021/11/22 04:51:37;;;;;;;3.45;1.08;;;;;;;4.97;100.00;101098.59;5072340;28;20404;-77
2021/11/22 04:54:04;;;;;;;1.83;1.20;;;;;;;5.00;100.00;101103.75;5068156;28;20135;-78
2021/11/22 04:56:32;;;;;;;2.42;0.77;;;;;;;5.02;100.00;101107.16;5066389;28;20199;-78
2021/11/22 04:58:59;;;;;;;6.90;1.13;;;;;;;4.97;100.00;101109.88;5051646;28;20152;-79
2021/11/22 05:01:26;;;;;;;2.83;0.80;;;;;;;4.88;100.00;101111.91;5062863;28;20571;-77
2021/11/22 05:03:54;;;;;;;2.35;0.85;;;;;;;4.72;100.00;101114.91;5061926;28;20137;-78
2021/11/22 05:06:21;;;;;;;2.63;0.90;;;;;;;4.67;100.00;101113.31;5064686;28;20144;-77
2021/11/22 05:08:48;;;;;;;2.22;1.00;;;;;;;4.64;100.00;101118.63;5064316;28;20321;-78
2021/11/22 05:11:15;;;;;;;4.35;0.70;;;;;;;4.62;100.00;101121.28;5068992;28;20536;-77
2021/11/22 05:13:44;;;;;;;1.75;0.82;;;;;;;4.53;100.00;101130.19;5049507;28;20403;-78
2021/11/22 05:16:13;;;;;;;0.80;0.60;;;;;;;4.41;100.00;101127.03;5037680;28;20045;-77
2021/11/22 05:18:43;;;;;;;3.90;0.85;;;;;;;4.35;100.00;101130.66;5049212;28;20432;-77
2021/11/22 05:21:11;;;;;;;2.75;1.30;;;;;;;4.31;100.00;101124.66;5028722;28;20052;-77
2021/11/22 05:23:38;;;;;;;4.32;1.13;;;;;;;4.26;100.00;101130.88;5060129;28;20514;-78
2021/11/22 05:26:06;;;;;;;3.20;1.60;;;;;;;4.19;100.00;101131.94;5059219;28;20442;-78
2021/11/22 05:28:33;;;;;;;3.15;0.90;;;;;;;4.10;100.00;101129.53;5056831;28;20041;-77
2021/11/22 05:31:00;;;;;;;5.22;1.27;;;;;;;4.01;100.00;101136.72;5054059;28;20102;-76
2021/11/22 05:33:28;;;;;;;1.45;1.00;;;;;;;3.94;100.00;101144.69;5055639;28;20497;-77
2021/11/22 05:35:56;;;;;;;3.65;1.10;;;;;;;3.84;100.00;101144.06;5040745;28;20041;-77
2021/11/22 05:38:26;;;;;;;4.78;1.20;;;;;;;3.77;100.00;101150.28;5057754;28;21331;-78
2021/11/22 05:40:55;;;;;;;2.97;1.23;;;;;;;3.72;100.00;101152.13;5038726;28;20456;-77
2021/11/22 05:43:23;;;;;;;1.38;1.00;;;;;;;3.68;100.00;101153.94;5061323;28;20554;-77
2021/11/22 05:45:50;;;;;;;3.03;0.93;;;;;;;3.63;100.00;101155.78;5047412;28;20480;-77
2021/11/22 05:48:19;;;;;;;5.40;1.40;;;;;;;3.57;100.00;101152.47;5062929;28;20064;-78
2021/11/22 05:50:52;;;;;;;1.95;0.90;;;;;;;3.55;100.00;101161.16;5064538;28;20132;-77
2021/11/22 05:53:20;;;;;;;1.80;0.90;;;;;;;3.53;100.00;101175.09;5051832;28;20084;-78
2021/11/22 05:55:51;;;;;;;3.03;1.10;;;;;;;3.49;100.00;101176.06;5066173;28;20080;-78
2021/11/22 05:58:20;;;;;;;2.20;0.75;;;;;;;3.39;100.00;101178.00;5051234;28;20150;-77
2021/11/22 06:00:47;;;;;;;2.85;1.00;;;;;;;3.36;100.00;101183.25;5040598;28;20549;-77
2021/11/22 06:03:16;;;;;;;4.05;1.58;;;;;;;3.34;100.00;101181.59;5068927;28;20048;-77
2021/11/22 06:05:44;;;;;;;2.78;1.00;;;;;;;3.28;100.00;101187.75;5046145;28;20470;-78
2021/11/22 06:08:12;;;;;;;3.58;0.90;;;;;;;3.25;100.00;101196.50;5063847;28;20044;-77
2021/11/22 06:10:39;;;;;;;3.42;1.00;;;;;;;3.19;100.00;101193.13;5057433;28;20037;-76
2021/11/22 06:13:10;;;;;;;1.80;0.80;;;;;;;3.10;100.00;101204.56;5065645;28;20053;-78
2021/11/22 06:15:40;;;;;;;3.78;1.00;;;;;;;3.06;100.00;101200.31;5050406;28;20123;-77
2021/11/22 06:18:08;;;;;;;4.75;1.20;;;;;;;3.01;100.00;101216.00;5072166;28;20056;-78
2021/11/22 06:20:37;;;;;;;8.35;1.38;;;;;;;2.97;100.00;101213.50;5061632;28;20076;-76
2021/11/22 06:23:05;;;;;;;7.35;1.08;;;;;;;2.92;100.00;101213.56;5031876;28;20099;-78
2021/11/22 06:25:33;;;;;;;6.70;1.30;;;;;;;2.93;100.00;101219.66;5062250;28;20265;-77
2021/11/22 06:28:04;;;;;;;9.88;1.50;;;;;;;2.89;100.00;101224.06;5066579;28;20032;-79
2021/11/22 06:30:32;;;;;;;14.43;1.45;;;;;;;2.84;100.00;101230.19;5030261;28;20120;-78
2021/11/22 06:33:03;;;;;;;10.63;1.40;;;;;;;2.80;100.00;101232.00;5052215;28;20145;-78
2021/11/22 06:35:34;;;;;;;6.43;1.58;;;;;;;2.78;100.00;101234.63;5064291;28;20076;-79
2021/11/22 06:38:03;;;;;;;3.55;1.10;;;;;;;2.80;100.00;101247.63;5068219;28;20071;-78
2021/11/22 06:40:33;;;;;;;4.10;1.08;;;;;;;2.77;100.00;101245.06;5067239;28;20383;-78
2021/11/22 06:43:02;;;;;;;13.32;2.00;;;;;;;2.72;100.00;101247.72;5065750;28;20099;-78
2021/11/22 06:45:30;;;;;;;7.80;1.20;;;;;;;2.70;100.00;101253.81;5061851;28;20068;-77
2021/11/22 06:48:00;;;;;;;6.25;1.55;;;;;;;2.68;100.00;101259.06;5067555;28;20610;-79
2021/11/22 06:50:28;;;;;;;4.97;1.40;;;;;;;2.65;100.00;101269.50;5073249;28;20111;-76
2021/11/22 06:52:55;;;;;;;4.10;1.00;;;;;;;2.68;100.00;101279.88;5063445;28;20044;-79
2021/11/22 06:55:23;;;;;;;2.65;0.77;;;;;;;2.70;100.00;101279.81;5072455;28;20053;-79
2021/11/22 06:57:50;;;;;;;4.78;1.23;;;;;;;2.65;100.00;101286.84;5062997;28;20395;-77
2021/11/22 07:00:20;;;;;;;3.30;1.10;;;;;;;2.63;100.00;101288.63;5066034;28;20083;-78
2021/11/22 07:02:51;;;;;;;4.28;1.48;;;;;;;2.62;100.00;101298.16;5056021;28;20040;-77
2021/11/22 07:05:20;;;;;;;5.80;1.02;;;;;;;2.62;100.00;101300.75;5046069;28;20191;-77
2021/11/22 07:07:48;;;;;;;1.30;0.90;;;;;;;2.61;100.00;101314.66;5066893;28;20638;-78
2021/11/22 07:10:17;;;;;;;2.35;1.17;;;;;;;2.59;100.00;101311.19;5063885;28;20139;-78
2021/11/22 07:12:44;;;;;;;4.43;0.90;;;;;;;2.62;100.00;101318.09;5064972;28;20165;-76
2021/11/22 07:15:17;;;;;;;2.03;1.00;;;;;;;2.59;100.00;101326.78;5061056;28;20052;-77
2021/11/22 07:17:45;;;;;;;3.70;1.13;;;;;;;2.61;100.00;101329.34;5064231;28;20465;-78
2021/11/22 07:20:12;;;;;;;3.10;1.00;;;;;;;2.68;100.00;101329.25;5052976;28;20072;-77
2021/11/22 07:22:40;;;;;;;4.47;1.10;;;;;;;2.67;100.00;101337.09;5066321;28;20048;-76
2021/11/22 07:25:07;;;;;;;6.20;1.17;;;;;;;2.69;100.00;101340.50;5052533;28;20049;-77
2021/11/22 07:27:35;;;;;;;2.92;0.95;;;;;;;2.70;100.00;101339.63;5072842;28;20141;-76
2021/11/22 07:30:04;;;;;;;5.72;1.42;;;;;;;2.76;100.00;101343.00;5062273;28;20148;-77
2021/11/22 07:32:33;;;;;;;1.85;1.02;;;;;;;2.78;100.00;101340.38;5053640;28;20059;-78
2021/11/22 07:35:00;;;;;;;4.50;1.20;;;;;;;2.79;100.00;101349.88;5063716;28;20040;-77
2021/11/22 07:37:28;;;;;;;7.82;1.50;;;;;;;2.82;100.00;101352.44;5051150;28;20153;-77
2021/11/22 07:39:55;;;;;;;6.40;1.15;;;;;;;2.88;100.00;101357.56;5046311;28;20109;-77
2021/11/22 07:42:22;;;;;;;5.63;1.48;;;;;;;2.94;100.00;101362.66;5048576;28;20045;-77
2021/11/22 07:44:50;;;;;;;3.05;1.30;;;;;;;2.95;100.00;101363.53;5062531;28;20048;-77
2021/11/22 07:47:18;;;;;;;5.38;1.20;;;;;;;2.98;100.00;101376.47;5028957;28;20072;-78
2021/11/22 07:49:48;;;;;;;2.70;1.30;;;;;;;2.94;100.00;101378.25;5046773;28;20509;-78
2021/11/22 07:52:18;;;;;;;2.80;1.80;;;;;;;2.93;100.00;101380.91;5065974;28;20202;-77
2021/11/22 07:54:46;;;;;;;3.90;1.08;;;;;;;2.95;100.00;101385.19;5069042;28;20076;-76
2021/11/22 07:57:14;;;;;;;5.15;1.30;;;;;;;3.11;100.00;101385.81;5062761;28;20051;-76
2021/11/22 07:59:41;;;;;;;3.50;1.10;;;;;;;3.15;100.00;101397.00;5063801;28;20136;-77
2021/11/22 08:02:09;;;;;;;5.57;2.25;;;;;;;3.29;100.00;101393.31;5059920;28;20151;-78
2021/11/22 08:04:36;;;;;;;4.68;1.40;;;;;;;3.40;100.00;101389.66;5060909;28;20788;-78
2021/11/22 08:07:15;;;;;;;2.47;1.40;;;;;;;3.50;100.00;101399.88;5048791;28;20066;-77
2021/11/22 08:09:56;;;;;;;3.85;1.67;;;;;;;3.62;100.00;101403.19;5059032;28;20039;-77
2021/11/22 08:12:27;;;;;;;2.42;0.98;;;;;;;3.73;100.00;101403.81;5072529;28;20595;-77
2021/11/22 08:14:58;;;;;;;3.17;1.00;;;;;;;3.76;100.00;101411.59;5059455;28;20045;-78
2021/11/22 08:17:26;;;;;;;7.07;1.40;;;;;;;3.90;100.00;101417.41;5040234;28;20144;-76
2021/11/22 08:19:56;;;;;;;2.88;1.20;;;;;;;4.02;100.00;101416.31;5061007;28;20048;-77
2021/11/22 08:22:25;;;;;;;2.75;1.17;;;;;;;4.15;100.00;101420.41;5032869;28;20151;-77
2021/11/22 08:24:54;;;;;;;2.13;1.20;;;;;;;4.25;100.00;101427.16;5060220;28;20132;-77
2021/11/22 08:27:30;;;;;;;2.38;1.10;;;;;;;4.41;100.00;101429.44;5075475;28;20053;-77
2021/11/22 08:30:02;;;;;;;3.20;1.40;;;;;;;4.48;100.00;101442.31;5055531;28;20068;-78
2021/11/22 08:32:29;;;;;;;4.45;1.52;;;;;;;4.70;100.00;101440.13;5029631;28;20051;-78
2021/11/22 08:34:57;;;;;;;4.15;1.40;;;;;;;4.81;99.77;101448.56;5039955;28;20149;-76
2021/11/22 08:37:24;;;;;;;4.88;1.60;;;;;;;4.82;99.10;101449.44;5033184;28;20090;-78
2021/11/22 08:39:52;;;;;;;2.20;1.00;;;;;;;4.64;99.01;101448.09;5057558;28;20537;-76
2021/11/22 08:42:19;;;;;;;5.00;1.30;;;;;;;4.39;99.34;101455.53;5042873;28;20140;-78
2021/11/22 08:44:47;;;;;;;3.28;1.10;;;;;;;4.29;100.00;101456.63;5060530;28;20643;-77
2021/11/22 08:47:14;;;;;;;3.60;1.13;;;;;;;4.35;100.00;101453.88;5052072;28;20068;-78
2021/11/22 08:49:44;;;;;;;3.13;1.25;;;;;;;4.58;99.14;101454.28;5074535;28;20041;-79
2021/11/22 08:52:12;;;;;;;2.20;1.20;;;;;;;4.86;98.10;101460.66;5042143;28;20163;-77
2021/11/22 08:54:39;;;;;;;4.57;1.00;;;;;;;4.94;96.63;101461.34;5049107;28;20128;-78
2021/11/22 08:57:09;;;;;;;4.32;1.40;;;;;;;5.15;94.70;101473.06;5063903;28;20048;-77
2021/11/22 08:59:38;;;;;;;2.97;1.52;;;;;;;5.20;93.67;101465.97;5055122;28;20127;-77
2021/11/22 09:02:06;;;;;;;1.90;0.90;;;;;;;5.27;92.30;101471.03;5036768;28;20538;-78
2021/11/22 09:04:34;;;;;;;9.38;1.73;;;;;;;5.32;92.22;101470.91;5055669;28;20041;-77
2021/11/22 09:07:01;;;;;;;4.80;0.70;;;;;;;5.41;91.73;101469.84;5061334;28;20124;-77
2021/11/22 09:09:30;;;;;;;4.05;0.82;;;;;;;5.57;90.79;101471.16;5060667;28;20147;-79
2021/11/22 09:11:59;;;;;;;2.17;0.95;;;;;;;5.58;89.13;101478.09;5025940;28;20063;-78
2021/11/22 09:14:26;;;;;;;2.05;0.93;;;;;;;5.55;89.83;101479.06;5022987;28;20051;-77
2021/11/22 09:16:54;;;;;;;1.48;0.82;;;;;;;5.64;88.60;101482.34;5058650;28;20068;-78
2021/11/22 09:19:22;;;;;;;3.38;0.80;;;;;;;5.77;88.95;101479.38;5060093;28;20056;-77
2021/11/22 09:21:50;;;;;;;9.15;0.90;;;;;;;5.87;86.80;101484.38;5064854;28;20075;-78
2021/11/22 09:24:17;;;;;;;2.15;0.90;;;;;;;6.06;87.73;101481.25;5065175;28;20537;-79
2021/11/22 09:26:46;;;;;;;8.00;1.10;;;;;;;6.36;88.81;101485.72;5046723;28;20072;-77
2021/11/22 09:29:14;;;;;;;9.48;1.20;;;;;;;6.66;87.92;101481.34;5062824;28;20052;-78
2021/11/22 09:31:41;;;;;;;4.57;1.17;;;;;;;6.67;85.28;101483.09;5047121;28;20438;-78
2021/11/22 09:34:08;;;;;;;2.60;0.90;;;;;;;6.64;85.21;101489.25;5046781;28;20041;-76
2021/11/22 09:36:35;;;;;;;2.38;1.00;;;;;;;6.55;83.19;101492.13;5048960;28;20071;-77
2021/11/22 09:39:04;;;;;;;2.95;1.10;;;;;;;6.64;84.62;101496.25;5061846;28;20460;-78
2021/11/22 09:41:32;;;;;;;4.30;1.13;;;;;;;6.83;83.68;101494.81;5036918;28;20036;-78
2021/11/22 09:43:59;;;;;;;5.30;1.13;;;;;;;6.91;82.47;101498.06;5072841;28;20467;-79
2021/11/22 09:46:27;;;;;;;2.42;0.73;;;;;;;6.98;81.62;101498.72;5066409;28;20044;-77
2021/11/22 09:48:54;;;;;;;2.17;1.10;;;;;;;7.09;79.71;101507.13;5066551;28;20462;-77
2021/11/22 09:51:22;;;;;;;1.98;0.90;;;;;;;7.19;78.63;101499.84;5069021;28;20408;-77
2021/11/22 09:53:50;;;;;;;2.30;1.08;;;;;;;7.21;77.09;101512.00;5068536;28;20133;-78
2021/11/22 09:56:17;;;;;;;5.50;1.88;;;;;;;7.27;77.44;101517.03;5050080;28;20056;-78
2021/11/22 09:58:45;;;;;;;3.92;0.95;;;;;;;7.34;76.52;101515.94;5065786;28;20052;-78
2021/11/22 10:01:15;;;;;;;4.32;0.82;;;;;;;7.29;76.74;101511.75;5066807;28;20427;-77
2021/11/22 10:04:03;;;;;;;1.98;1.08;;;;;;;7.40;76.27;101516.66;5037102;28;20040;-78
2021/11/22 10:06:55;;;;;;;10.40;1.00;;;;;;;7.67;74.18;101515.78;5067171;28;20041;-76
2021/11/22 10:09:32;;;;;;;2.05;0.70;;;;;;;7.76;74.22;101512.84;5059733;28;20064;-77
2021/11/22 10:12:06;;;;;;;9.07;1.02;;;;;;;7.98;73.58;101506.91;5066146;28;20514;-76
2021/11/22 10:14:44;;;;;;;1.88;0.60;;;;;;;8.05;71.52;101517.09;5063550;28;20596;-77
2021/11/22 10:17:39;;;;;;;2.10;0.60;;;;;;;8.13;72.63;101519.47;5066419;28;20077;-78
2021/11/22 10:20:09;;;;;;;1.60;0.80;;;;;;;7.98;71.40;101515.63;5044418;28;20055;-78
2021/11/22 10:22:48;;;;;;;1.48;0.90;;;;;;;7.90;72.42;101530.75;5067698;28;20040;-78
2021/11/22 10:25:31;;;;;;;3.42;1.08;;;;;;;7.90;72.96;101522.03;5058617;28;20513;-77
2021/11/22 10:28:13;;;;;;;2.60;0.90;;;;;;;8.08;72.14;101518.78;5052072;28;20077;-76
2021/11/22 10:30:49;;;;;;;7.38;1.33;;;;;;;7.70;70.07;101515.69;5062681;28;20410;-78
2021/11/22 10:33:29;;;;;;;2.92;0.90;;;;;;;7.61;71.53;101516.84;5066268;28;20067;-78
2021/11/22 10:36:00;;;;;;;2.42;0.52;;;;;;;7.59;71.31;101523.88;5044043;28;20055;-78
2021/11/22 10:38:32;;;;;;;2.38;0.77;;;;;;;7.70;69.84;101525.28;5045983;28;20143;-77
2021/11/22 10:41:06;;;;;;;8.18;1.00;;;;;;;7.70;69.50;101517.41;5026262;28;20051;-79
2021/11/22 10:43:54;;;;;;;8.35;1.00;;;;;;;7.65;68.72;101514.09;5064652;28;20191;-78
2021/11/22 10:46:27;;;;;;;8.32;1.08;;;;;;;7.78;67.45;101521.50;5036559;28;20072;-78
2021/11/22 10:49:14;;;;;;;4.82;0.75;;;;;;;8.00;67.47;101518.19;5057561;28;20108;-78
2021/11/22 10:51:46;;;;;;;4.28;0.80;;;;;;;7.97;65.83;101515.66;5065487;28;20127;-78
2021/11/22 10:54:16;;;;;;;0.90;0.50;;;;;;;8.03;65.60;101511.06;5033809;28;20101;-78
2021/11/22 10:56:48;;;;;;;1.00;0.63;;;;;;;8.40;64.89;101520.31;5030942;28;20043;-78
2021/11/22 10:59:20;;;;;;;1.05;0.80;;;;;;;8.58;64.69;101516.16;5042607;28;20052;-78
2021/11/22 11:01:56;;;;;;;2.03;1.40;;;;;;;9.00;62.97;101520.72;5047813;28;20056;-77
2021/11/22 11:04:26;;;;;;;1.75;0.57;;;;;;;9.19;60.63;101520.91;5046043;28;20543;-78
2021/11/22 11:07:01;;;;;;;4.82;0.85;;;;;;;9.39;61.59;101519.19;5050677;28;20071;-78
2021/11/22 11:09:48;;;;;;;2.67;0.70;;;;;;;9.53;58.08;101513.38;5062507;28;20174;-77
2021/11/22 11:12:21;;;;;;;1.38;0.55;;;;;;;10.07;56.52;101522.53;5073010;28;20548;-77
2021/11/22 11:14:54;;;;;;;0.77;0.40;;;;;;;10.75;56.92;101524.88;5062583;28;20057;-76
2021/11/22 11:17:34;;;;;;;0.80;0.50;;;;;;;11.11;53.19;101524.94;5073767;28;20040;-78
2021/11/22 11:20:11;;;;;;;1.95;0.60;;;;;;;11.40;52.29;101528.88;5060074;28;20150;-78
2021/11/22 11:22:39;;;;;;;1.27;0.40;;;;;;;11.48;50.14;101531.09;5062778;28;20052;-77
2021/11/22 11:25:06;;;;;;;1.90;0.60;;;;;;;11.73;49.70;101531.63;5053000;28;20047;-78
2021/11/22 11:27:43;;;;;;;0.70;0.40;;;;;;;12.38;47.93;101524.84;5071814;28;20057;-76
2021/11/22 11:30:13;;;;;;;1.35;0.50;;;;;;;12.09;47.70;101536.88;5063834;28;20048;-77
2021/11/22 11:32:44;;;;;;;0.52;0.40;;;;;;;10.82;49.76;101539.47;5054309;28;20055;-77
2021/11/22 11:35:18;;;;;;;1.08;0.60;;;;;;;10.79;49.92;101544.88;5046416;28;20048;-77
2021/11/22 11:38:04;;;;;;;3.80;0.77;;;;;;;10.23;51.14;101546.41;5064011;28;20060;-79